Maui, HI

10:03 AM HST on April 19, 2015 (GMT -1000)
Lahaina | | Change Station
CLOSE
Current Station
Airport
Location: Lahaina,
Elevation: 256 ft
Nearby Weather Stations

Elev 256 ft 20.96 °N, 156.67 °W | Updated 18 minutes ago

Scattered Clouds
Scattered Clouds
73 °F
Feels Like 73 °F
N
15
Wind Variable Wind from NE
Gusts 21 mph

Today
High -- | Low -- °F
--% Chance of Precip.
Yesterday
High -- | Low -- °F
Precip. -- in
6:04 AM 6:46 PM
New Moon, 2% visible
Pressure 30.16 in
Visibility 15.0 miles
Clouds Few 3000 ft
Scattered Clouds 4500 ft
Dew Point 64 °F
Humidity 73%
Rainfall 0.00 in
Snow Depth Not available.
UV 6 out of 12
Pollen Not available.
Air Quality Not available.
Flu Activity Regional
METAR PHJH 191945Z 05013G18KT 15SM FEW030 SCT045 23/18 A3016

More Conditions Fewer Conditions

Pressure 30.16 in
Visibility 15.0 miles
Clouds Few 3000 ft
Scattered Clouds 4500 ft
Dew Point 64 °F
Humidity 73%
Rainfall 0.00 in
Snow Depth Not available.
UV 6 out of 12
Pollen Not available.
Air Quality Not available.
Flu Activity Regional
METAR PHJH 191945Z 05013G18KT 15SM FEW030 SCT045 23/18 A3016

More Conditions Fewer Conditions

10-Day Weather Forecast

Almanac

Astronomy

Apr. 19, 2015 Rise Set
Actual Time
Civil Twilight
Nautical Twilight
Astronomical Twilight
Moon
Length of Visible Light
Length of Day
Tomorrow will be .
, % of the Moon is Illuminated

Today's Extremes

State Highs State Lows

Community

WunderPhotos

Upload Photos

1,814,956 photos uploaded!

WunderBlogs® & News

Nearby

Air Quality

  Air Quality AQ Index Pollutant
Not available.

Snow Depth

Station Depth Elevation

Earthquake Activity

City Distance Mag. Time & Date
Minimum magnitude displayed is 2.5.

Coastal Water Temperatures

Place Temperature

Stations

Nearby Weather Stations

Station Location Temp. Windchill Dew Point Humidity Wind Precip. Elev Updated Type